createdAt,value
2022-11-28T00:00:45.192Z,3.57
2022-11-28T00:03:49.756Z,3.54
2022-11-28T00:06:54.422Z,3.51
2022-11-28T00:09:57.759Z,3.53
2022-11-28T00:13:03.750Z,3.51
2022-11-28T00:16:11.169Z,3.52
2022-11-28T00:19:17.255Z,3.53
2022-11-28T00:22:22.612Z,3.51
2022-11-28T00:25:25.627Z,3.48
2022-11-28T00:28:29.666Z,3.48
2022-11-28T00:31:36.953Z,3.45
2022-11-28T00:34:44.141Z,3.45
2022-11-28T00:37:47.140Z,3.45
2022-11-28T00:41:00.823Z,3.44
2022-11-28T00:44:03.883Z,3.43
2022-11-28T00:47:07.072Z,3.43
2022-11-28T00:50:16.282Z,3.41
2022-11-28T00:53:19.353Z,3.42
2022-11-28T00:56:25.394Z,3.44
2022-11-28T00:59:28.387Z,3.46
2022-11-28T01:02:32.097Z,3.41
2022-11-28T01:05:41.852Z,3.40
2022-11-28T01:08:44.830Z,3.39
2022-11-28T01:11:49.060Z,3.38
2022-11-28T01:14:54.687Z,3.36
2022-11-28T01:17:57.718Z,3.34
2022-11-28T01:21:02.065Z,3.31
2022-11-28T01:24:05.821Z,3.31
2022-11-28T01:27:11.021Z,3.28
2022-11-28T01:30:14.585Z,3.28
2022-11-28T01:33:17.670Z,3.30
2022-11-28T01:36:23.982Z,3.30
2022-11-28T01:39:27.066Z,3.30
2022-11-28T01:42:33.246Z,3.30
2022-11-28T01:45:36.895Z,3.28
2022-11-28T01:48:43.580Z,3.27
2022-11-28T01:51:55.574Z,3.27
2022-11-28T01:55:02.264Z,3.28
2022-11-28T01:58:06.045Z,3.26
2022-11-28T02:01:10.014Z,3.28
2022-11-28T02:04:14.631Z,3.28
2022-11-28T02:07:19.720Z,3.29
2022-11-28T02:10:27.010Z,3.32
2022-11-28T02:13:44.916Z,3.31
2022-11-28T02:17:08.374Z,3.32
2022-11-28T02:21:11.223Z,3.30
2022-11-28T02:24:58.762Z,3.31
2022-11-28T02:32:56.990Z,3.31
2022-11-28T02:36:11.946Z,3.31
2022-11-28T02:39:24.759Z,3.32
2022-11-28T02:42:36.662Z,3.33
2022-11-28T02:45:50.727Z,3.34
2022-11-28T02:48:59.226Z,3.34
2022-11-28T02:52:08.167Z,3.34
2022-11-28T02:55:12.813Z,3.33
2022-11-28T02:58:16.517Z,3.32
2022-11-28T03:01:24.476Z,3.29
2022-11-28T03:04:39.595Z,3.29
2022-11-28T03:07:59.317Z,3.27
2022-11-28T03:11:16.863Z,3.24
2022-11-28T03:14:32.115Z,3.24
2022-11-28T03:17:46.079Z,3.22
2022-11-28T03:21:00.353Z,3.22
2022-11-28T03:24:11.893Z,3.22
2022-11-28T03:27:22.292Z,3.20
2022-11-28T03:30:31.739Z,3.19
2022-11-28T03:33:39.706Z,3.19
2022-11-28T03:36:51.900Z,3.22
2022-11-28T03:40:00.682Z,3.22
2022-11-28T03:43:09.261Z,3.22
2022-11-28T03:46:17.582Z,3.22
2022-11-28T03:49:26.067Z,3.23
2022-11-28T03:52:34.448Z,3.23
2022-11-28T03:55:43.618Z,3.23
2022-11-28T03:58:55.679Z,3.20
2022-11-28T04:02:07.873Z,3.20
2022-11-28T04:05:20.230Z,3.22
2022-11-28T04:08:30.413Z,3.23
2022-11-28T04:11:42.056Z,3.23
2022-11-28T04:14:52.788Z,3.24
2022-11-28T04:18:01.614Z,3.22
2022-11-28T04:21:13.615Z,3.20
2022-11-28T04:24:22.727Z,3.20
2022-11-28T04:27:33.342Z,3.20
2022-11-28T04:30:39.308Z,3.18
2022-11-28T04:33:50.631Z,3.16
2022-11-28T04:36:56.339Z,3.13
2022-11-28T04:40:02.715Z,3.13
2022-11-28T04:43:17.076Z,3.15
2022-11-28T04:46:29.793Z,3.15
2022-11-28T04:49:34.880Z,3.16
2022-11-28T04:52:46.357Z,3.13
2022-11-28T04:55:57.060Z,3.10
2022-11-28T04:59:01.557Z,3.13
2022-11-28T05:02:06.302Z,3.12
2022-11-28T05:05:12.513Z,3.13
2022-11-28T05:08:16.389Z,3.13
2022-11-28T05:11:20.868Z,3.16
2022-11-28T05:14:24.695Z,3.18
2022-11-28T05:17:27.750Z,3.17
2022-11-28T05:20:31.350Z,3.18
2022-11-28T05:23:34.407Z,3.22
2022-11-28T05:26:38.881Z,3.21
2022-11-28T05:29:46.838Z,3.23
2022-11-28T05:32:52.569Z,3.24
2022-11-28T05:35:55.718Z,3.25
2022-11-28T05:38:58.703Z,3.24
2022-11-28T05:42:03.077Z,3.24
2022-11-28T05:45:07.137Z,3.26
2022-11-28T05:48:10.509Z,3.25
2022-11-28T05:51:14.016Z,3.26
2022-11-28T05:54:17.047Z,3.27
2022-11-28T05:57:21.358Z,3.29
2022-11-28T06:00:24.645Z,3.29
2022-11-28T06:03:28.030Z,3.31
2022-11-28T06:06:33.895Z,3.28
2022-11-28T06:09:37.570Z,3.29
2022-11-28T06:12:41.923Z,3.27
2022-11-28T06:15:45.496Z,3.26
2022-11-28T06:18:48.963Z,3.24
2022-11-28T06:21:52.119Z,3.23
2022-11-28T06:24:55.344Z,3.20
2022-11-28T06:27:59.608Z,3.20
2022-11-28T06:31:02.683Z,3.20
2022-11-28T06:34:05.714Z,3.18
2022-11-28T06:37:08.829Z,3.16
2022-11-28T06:40:12.221Z,3.15
2022-11-28T06:43:16.774Z,3.15
2022-11-28T06:46:22.171Z,3.16
2022-11-28T06:49:25.246Z,3.15
2022-11-28T06:52:31.605Z,3.15
2022-11-28T06:55:37.954Z,3.16
2022-11-28T06:58:43.944Z,3.17
2022-11-28T07:01:46.985Z,3.17
2022-11-28T07:04:50.004Z,3.16
2022-11-28T07:07:54.424Z,3.17
2022-11-28T07:10:58.263Z,3.17
2022-11-28T07:14:03.961Z,3.17
2022-11-28T07:17:06.970Z,3.17
2022-11-28T07:20:11.414Z,3.13
2022-11-28T07:23:14.494Z,3.13
2022-11-28T07:26:23.826Z,3.13
2022-11-28T07:29:35.649Z,3.10
2022-11-28T07:32:41.482Z,3.11
2022-11-28T07:35:44.755Z,3.10
2022-11-28T07:38:49.295Z,3.11
2022-11-28T07:41:52.429Z,3.11
2022-11-28T07:44:57.554Z,3.12
2022-11-28T07:48:00.494Z,3.13
2022-11-28T07:51:07.866Z,3.13
2022-11-28T07:54:11.052Z,3.17
2022-11-28T07:57:14.068Z,3.20
2022-11-28T08:00:20.727Z,3.24
2022-11-28T08:03:24.055Z,3.26
2022-11-28T08:06:30.273Z,3.27
2022-11-28T08:09:33.867Z,3.32
2022-11-28T08:12:37.340Z,3.34
2022-11-28T08:15:42.027Z,3.36
2022-11-28T08:18:46.070Z,3.35
2022-11-28T08:21:49.055Z,3.38
2022-11-28T08:24:52.192Z,3.43
2022-11-28T08:27:55.156Z,3.42
2022-11-28T08:31:01.500Z,3.51
2022-11-28T08:34:07.032Z,3.48
2022-11-28T08:37:09.983Z,3.48
2022-11-28T08:40:14.146Z,3.55
2022-11-28T08:43:17.114Z,3.51
2022-11-28T08:46:23.908Z,3.56
2022-11-28T08:49:26.903Z,3.60
2022-11-28T08:52:30.166Z,3.62
2022-11-28T08:55:36.587Z,3.67
2022-11-28T08:58:42.242Z,3.76
2022-11-28T09:01:46.571Z,3.73
2022-11-28T09:04:49.579Z,3.81
2022-11-28T09:07:55.615Z,3.88
2022-11-28T09:10:58.717Z,3.91
2022-11-28T09:14:01.692Z,3.95
2022-11-28T09:17:06.373Z,3.94
2022-11-28T09:20:10.769Z,3.94
2022-11-28T09:23:13.785Z,3.97
2022-11-28T09:26:20.564Z,4.05
2022-11-28T09:29:23.581Z,4.02
2022-11-28T09:32:27.882Z,4.05
2022-11-28T09:35:30.828Z,4.04
2022-11-28T09:38:34.355Z,4.12
2022-11-28T09:41:59.346Z,4.18
2022-11-28T09:45:06.591Z,4.21
2022-11-28T09:48:25.803Z,4.26
2022-11-28T09:51:34.313Z,4.29
2022-11-28T09:54:45.844Z,4.33
2022-11-28T09:57:51.166Z,4.39
2022-11-28T10:01:01.975Z,4.45
2022-11-28T10:04:16.185Z,4.45
2022-11-28T10:07:27.196Z,4.51
2022-11-28T10:10:39.909Z,4.53
2022-11-28T10:14:07.905Z,4.56
2022-11-28T10:17:22.227Z,4.53
2022-11-28T10:20:29.745Z,4.58
2022-11-28T10:23:40.189Z,4.59
2022-11-28T10:26:47.369Z,4.66
2022-11-28T10:29:54.900Z,4.67
2022-11-28T10:33:05.397Z,4.69
2022-11-28T10:36:16.480Z,4.83
2022-11-28T10:39:20.094Z,4.90
2022-11-28T10:42:31.221Z,4.90
2022-11-28T10:45:46.854Z,4.96
2022-11-28T10:48:56.859Z,4.99
2022-11-28T10:52:11.435Z,4.89
2022-11-28T10:55:32.035Z,4.95
2022-11-28T10:58:43.864Z,4.95
2022-11-28T11:02:05.388Z,5.03
2022-11-28T11:05:15.147Z,5.01
2022-11-28T11:08:26.126Z,5.05
2022-11-28T11:11:35.850Z,5.06
2022-11-28T11:14:40.851Z,5.09
2022-11-28T11:17:44.173Z,5.12
2022-11-28T11:20:48.123Z,5.18
2022-11-28T11:24:13.530Z,5.29
2022-11-28T11:27:22.033Z,5.33
2022-11-28T11:30:34.288Z,5.38
2022-11-28T11:33:38.786Z,5.36
2022-11-28T11:36:41.803Z,5.37
2022-11-28T11:39:51.371Z,5.43
2022-11-28T11:42:57.201Z,5.54
2022-11-28T11:46:09.433Z,5.59
2022-11-28T11:49:30.678Z,5.65
2022-11-28T11:52:34.210Z,5.75
2022-11-28T11:55:48.403Z,5.79
2022-11-28T11:58:54.468Z,5.89
2022-11-28T12:02:02.812Z,5.82
2022-11-28T12:05:13.663Z,5.92
2022-11-28T12:08:21.718Z,5.86
2022-11-28T12:11:30.776Z,5.93
2022-11-28T12:14:36.442Z,5.90
2022-11-28T12:17:58.680Z,5.93
2022-11-28T12:21:13.775Z,5.89
2022-11-28T12:24:20.991Z,5.87
2022-11-28T12:27:44.643Z,5.95
2022-11-28T12:31:00.225Z,5.97
2022-11-28T12:34:17.006Z,5.89
2022-11-28T12:38:09.739Z,5.80
2022-11-28T12:41:32.403Z,5.67
2022-11-28T12:44:54.759Z,5.64
2022-11-28T12:48:13.594Z,5.65
2022-11-28T12:51:29.133Z,5.66
2022-11-28T12:54:57.802Z,5.64
2022-11-28T12:58:09.602Z,5.70
2022-11-28T13:01:40.340Z,5.71
2022-11-28T13:05:02.531Z,5.66
2022-11-28T13:08:48.810Z,5.63
2022-11-28T13:12:04.454Z,5.49
2022-11-28T13:15:16.061Z,5.49
2022-11-28T13:18:38.144Z,5.55
2022-11-28T13:21:48.714Z,5.51
2022-11-28T13:25:04.621Z,5.48
2022-11-28T13:28:17.595Z,5.49
2022-11-28T13:31:28.267Z,5.41
2022-11-28T13:34:33.648Z,5.37
2022-11-28T13:41:35.772Z,5.28
2022-11-28T13:44:51.736Z,5.28
2022-11-28T13:47:55.704Z,5.30
2022-11-28T13:51:06.595Z,5.26
2022-11-28T13:54:45.194Z,5.19
2022-11-28T13:57:48.816Z,5.16
2022-11-28T14:01:07.827Z,5.18
2022-11-28T14:04:14.027Z,5.14
2022-11-28T14:07:27.450Z,5.10
2022-11-28T14:10:52.583Z,5.01
2022-11-28T14:14:20.583Z,4.96
2022-11-28T14:17:42.721Z,4.79
2022-11-28T14:21:11.527Z,4.79
2022-11-28T14:24:38.781Z,4.76
2022-11-28T14:27:52.236Z,4.70
2022-11-28T14:31:05.231Z,4.59
2022-11-28T14:34:40.070Z,4.55
2022-11-28T14:37:55.536Z,4.55
2022-11-28T14:41:04.360Z,4.47
2022-11-28T14:44:47.209Z,4.43
2022-11-28T14:48:18.273Z,4.39
2022-11-28T14:52:38.388Z,4.37
2022-11-28T14:55:42.583Z,4.32
2022-11-28T14:58:48.459Z,4.28
2022-11-28T15:02:01.347Z,4.27
2022-11-28T15:05:19.031Z,4.22
2022-11-28T15:08:50.698Z,4.18
2022-11-28T15:12:11.504Z,4.15
2022-11-28T15:15:17.466Z,4.12
2022-11-28T15:18:24.762Z,4.16
2022-11-28T15:21:29.384Z,4.13
2022-11-28T15:24:35.938Z,4.09
2022-11-28T15:27:39.294Z,4.06
2022-11-28T15:30:46.888Z,4.04
2022-11-28T15:33:51.098Z,4.04
2022-11-28T15:36:57.296Z,4.00
2022-11-28T15:40:06.047Z,3.99
2022-11-28T15:43:13.271Z,3.95
2022-11-28T15:46:21.700Z,3.96
2022-11-28T15:49:29.166Z,3.91
2022-11-28T15:52:32.472Z,3.90
2022-11-28T15:55:37.292Z,3.86
2022-11-28T15:58:42.062Z,3.86
2022-11-28T16:01:45.207Z,3.82
2022-11-28T16:04:48.715Z,3.83
2022-11-28T16:07:53.546Z,3.83
2022-11-28T16:10:59.306Z,3.81
2022-11-28T16:14:09.930Z,3.79
2022-11-28T16:17:20.308Z,3.80
2022-11-28T16:20:26.859Z,3.80
2022-11-28T16:23:34.320Z,3.73
2022-11-28T16:26:41.490Z,3.72
2022-11-28T16:29:47.358Z,3.68
2022-11-28T16:32:51.812Z,3.69
2022-11-28T16:35:54.833Z,3.68
2022-11-28T16:39:13.215Z,3.69
2022-11-28T16:42:20.148Z,3.64
2022-11-28T16:45:30.917Z,3.60
2022-11-28T16:48:36.906Z,3.57
2022-11-28T16:51:42.032Z,3.54
2022-11-28T16:54:45.675Z,3.50
2022-11-28T16:57:56.192Z,3.48
2022-11-28T17:01:02.908Z,3.46
2022-11-28T17:04:06.971Z,3.42
2022-11-28T17:07:13.992Z,3.43
2022-11-28T17:10:17.475Z,3.42
2022-11-28T17:13:22.276Z,3.42
2022-11-28T17:16:27.294Z,3.44
2022-11-28T17:19:30.489Z,3.45
2022-11-28T17:22:40.991Z,3.46
2022-11-28T17:25:44.470Z,3.47
2022-11-28T17:28:49.797Z,3.44
2022-11-28T17:31:57.131Z,3.41
2022-11-28T17:35:03.992Z,3.42
2022-11-28T17:38:07.235Z,3.40
2022-11-28T17:41:14.724Z,3.38
2022-11-28T17:44:21.770Z,3.38
2022-11-28T17:47:25.056Z,3.42
2022-11-28T17:50:28.539Z,3.43
2022-11-28T17:53:31.900Z,3.40
2022-11-28T17:56:35.281Z,3.40
2022-11-28T17:59:40.053Z,3.39
2022-11-28T18:02:43.446Z,3.42
2022-11-28T18:05:48.668Z,3.38
2022-11-28T18:08:52.665Z,3.37
2022-11-28T18:11:55.955Z,3.39
2022-11-28T18:15:00.976Z,3.41
2022-11-28T18:18:05.773Z,3.44
2022-11-28T18:21:12.053Z,3.45
2022-11-28T18:24:15.103Z,3.43
2022-11-28T18:27:18.428Z,3.44
2022-11-28T18:30:23.035Z,3.41
2022-11-28T18:33:26.401Z,3.39
2022-11-28T18:36:34.532Z,3.40
2022-11-28T18:39:37.912Z,3.42
2022-11-28T18:42:44.479Z,3.41
2022-11-28T18:45:49.572Z,3.41
2022-11-28T18:48:53.836Z,3.42
2022-11-28T18:51:57.935Z,3.43
2022-11-28T18:55:01.072Z,3.43
2022-11-28T18:58:05.580Z,3.42
2022-11-28T19:01:15.016Z,3.43
2022-11-28T19:04:18.378Z,3.44
2022-11-28T19:07:22.521Z,3.48
2022-11-28T19:10:25.947Z,3.47
2022-11-28T19:13:29.198Z,3.47
2022-11-28T19:16:37.383Z,3.46
2022-11-28T19:19:41.373Z,3.47
2022-11-28T19:22:44.737Z,3.49
2022-11-28T19:25:49.111Z,3.49
2022-11-28T19:28:56.429Z,3.46
2022-11-28T19:32:00.924Z,3.46
2022-11-28T19:35:04.408Z,3.49
2022-11-28T19:38:07.651Z,3.52
2022-11-28T19:41:13.697Z,3.54
2022-11-28T19:44:17.275Z,3.53
2022-11-28T19:47:22.925Z,3.55
2022-11-28T19:50:26.290Z,3.56
2022-11-28T19:53:31.344Z,3.57
2022-11-28T19:56:36.625Z,3.57
2022-11-28T19:59:39.802Z,3.58
2022-11-28T20:02:47.708Z,3.61
2022-11-28T20:05:51.383Z,3.59
2022-11-28T20:09:00.530Z,3.59
2022-11-28T20:12:05.663Z,3.59
2022-11-28T20:15:16.672Z,3.59
2022-11-28T20:18:22.555Z,3.59
2022-11-28T20:21:25.644Z,3.57
2022-11-28T20:24:30.127Z,3.59
2022-11-28T20:27:33.809Z,3.57
2022-11-28T20:30:37.233Z,3.60
2022-11-28T20:33:42.218Z,3.60
2022-11-28T20:36:45.994Z,3.58
2022-11-28T20:39:49.406Z,3.59
2022-11-28T20:42:53.072Z,3.53
2022-11-28T20:45:56.276Z,3.53
2022-11-28T20:49:03.434Z,3.49
2022-11-28T20:52:06.727Z,3.53
2022-11-28T20:55:10.235Z,3.53
2022-11-28T20:58:13.427Z,3.47
2022-11-28T21:01:22.743Z,3.48
2022-11-28T21:04:27.167Z,3.47
2022-11-28T21:07:31.002Z,3.47
2022-11-28T21:10:34.700Z,3.45
2022-11-28T21:13:37.790Z,3.47
2022-11-28T21:16:40.936Z,3.48
2022-11-28T21:19:45.692Z,3.48
2022-11-28T21:22:51.174Z,3.46
2022-11-28T21:25:54.191Z,3.47
2022-11-28T21:29:01.357Z,3.48
2022-11-28T21:32:04.395Z,3.44
2022-11-28T21:35:10.074Z,3.46
2022-11-28T21:38:13.183Z,3.47
2022-11-28T21:41:16.242Z,3.45
2022-11-28T21:44:19.293Z,3.47
2022-11-28T21:47:22.493Z,3.47
2022-11-28T21:50:27.077Z,3.47
2022-11-28T21:53:31.319Z,3.46
2022-11-28T21:56:34.977Z,3.43
2022-11-28T21:59:40.861Z,3.42
2022-11-28T22:02:46.313Z,3.41
2022-11-28T22:05:52.508Z,3.39
2022-11-28T22:08:55.957Z,3.41
2022-11-28T22:11:59.090Z,3.39
2022-11-28T22:15:02.183Z,3.40
2022-11-28T22:18:05.633Z,3.37
2022-11-28T22:21:49.476Z,3.37
2022-11-28T22:24:36.929Z,3.38
2022-11-28T22:27:41.238Z,3.39
2022-11-28T22:30:44.368Z,3.41
2022-11-28T22:33:47.351Z,3.40
2022-11-28T22:36:51.687Z,3.42
2022-11-28T22:39:56.530Z,3.41
2022-11-28T22:43:02.013Z,3.43
2022-11-28T22:46:06.040Z,3.42
2022-11-28T22:49:11.262Z,3.47
2022-11-28T22:52:16.931Z,3.42
2022-11-28T22:55:20.511Z,3.39
2022-11-28T22:58:23.933Z,3.36
2022-11-28T23:01:29.973Z,3.35
2022-11-28T23:04:33.318Z,3.35
2022-11-28T23:07:37.710Z,3.30
2022-11-28T23:10:40.691Z,3.31
2022-11-28T23:13:45.440Z,3.28
2022-11-28T23:16:49.900Z,3.27
2022-11-28T23:19:53.416Z,3.24
2022-11-28T23:22:57.718Z,3.26
2022-11-28T23:26:05.398Z,3.27
2022-11-28T23:29:08.618Z,3.25
2022-11-28T23:32:11.834Z,3.24
2022-11-28T23:35:15.489Z,3.24
2022-11-28T23:38:19.874Z,3.21
2022-11-28T23:41:23.628Z,3.20
2022-11-28T23:44:26.838Z,3.21
2022-11-28T23:47:29.794Z,3.18
2022-11-28T23:50:32.762Z,3.15
2022-11-28T23:53:38.070Z,3.17
2022-11-28T23:56:42.988Z,3.20
2022-11-28T23:59:46.208Z,3.16
